createdAt,value
2018-12-26T00:01:06.989Z,47.32
2018-12-26T00:03:53.705Z,46.66
2018-12-26T00:06:20.899Z,46.66
2018-12-26T00:08:48.238Z,47.10
2018-12-26T00:11:34.859Z,46.74
2018-12-26T00:14:02.393Z,46.74
2018-12-26T00:16:29.657Z,46.98
2018-12-26T00:18:56.870Z,46.98
2018-12-26T00:21:24.047Z,46.78
2018-12-26T00:23:51.307Z,46.81
2018-12-26T00:26:18.568Z,46.84
2018-12-26T00:28:45.783Z,46.95
2018-12-26T00:31:12.990Z,46.86
2018-12-26T00:33:59.690Z,46.97
2018-12-26T00:36:46.326Z,46.59
2018-12-26T00:39:13.600Z,46.59
2018-12-26T00:42:39.131Z,46.84
2018-12-26T00:45:06.685Z,46.84
2018-12-26T00:47:53.336Z,47.04
2018-12-26T00:50:39.988Z,46.78
2018-12-26T00:53:14.182Z,46.78
2018-12-26T00:56:00.825Z,46.90
2018-12-26T00:58:28.027Z,46.90
2018-12-26T01:00:55.293Z,46.97
2018-12-26T01:03:22.470Z,46.98
2018-12-26T01:06:09.142Z,46.95
2018-12-26T01:08:36.318Z,46.95
2018-12-26T01:11:03.596Z,47.08
2018-12-26T01:13:30.816Z,47.17
2018-12-26T01:16:17.462Z,47.23
2018-12-26T01:18:44.719Z,47.41
2018-12-26T01:21:31.369Z,46.92
2018-12-26T01:23:58.571Z,46.92
2018-12-26T01:26:45.219Z,47.25
2018-12-26T01:29:12.428Z,47.25
2018-12-26T01:31:59.071Z,47.25
2018-12-26T01:34:26.249Z,47.25
2018-12-26T01:36:53.491Z,47.16
2018-12-26T01:39:40.129Z,47.42
2018-12-26T01:42:26.835Z,47.27
2018-12-26T01:45:06.710Z,47.04
2018-12-26T01:47:46.815Z,47.39
2018-12-26T01:50:14.049Z,47.39
2018-12-26T01:52:41.220Z,47.17
2018-12-26T01:55:27.866Z,47.19
2018-12-26T01:58:14.507Z,47.26
2018-12-26T02:00:41.748Z,47.26
2018-12-26T02:03:28.399Z,47.23
2018-12-26T02:06:15.050Z,46.93
2018-12-26T02:08:42.243Z,46.93
2018-12-26T02:11:09.468Z,47.18
2018-12-26T02:13:56.186Z,47.19
2018-12-26T02:16:23.395Z,47.19
2018-12-26T02:18:50.586Z,47.19
2018-12-26T02:21:17.910Z,47.19
2018-12-26T02:24:04.510Z,47.58
2018-12-26T02:26:51.149Z,47.69
2018-12-26T02:29:37.749Z,47.42
2018-12-26T02:32:04.951Z,47.42
2018-12-26T02:34:51.540Z,47.42
2018-12-26T02:37:18.895Z,47.24
2018-12-26T02:39:46.100Z,47.24
2018-12-26T02:42:32.788Z,47.31
2018-12-26T02:45:12.294Z,47.20
2018-12-26T02:47:39.506Z,47.20
2018-12-26T02:50:26.194Z,47.25
2018-12-26T02:52:53.421Z,47.25
2018-12-26T02:55:20.650Z,47.23
2018-12-26T02:57:47.907Z,47.14
2018-12-26T03:00:34.501Z,47.19
2018-12-26T03:03:01.769Z,47.19
2018-12-26T03:05:28.962Z,47.20
2018-12-26T03:08:15.660Z,47.15
2018-12-26T03:11:02.261Z,47.03
2018-12-26T03:13:29.545Z,47.03
2018-12-26T03:16:16.161Z,47.40
2018-12-26T03:18:43.378Z,47.40
2018-12-26T03:21:29.979Z,47.41
2018-12-26T03:23:57.196Z,47.41
2018-12-26T03:26:24.417Z,47.26
2018-12-26T03:29:11.083Z,47.28
2018-12-26T03:31:38.305Z,47.28
2018-12-26T03:34:05.585Z,47.28
2018-12-26T03:36:52.202Z,47.38
2018-12-26T03:39:38.893Z,47.17
2018-12-26T03:42:06.171Z,47.25
2018-12-26T03:44:52.918Z,47.07
2018-12-26T03:47:20.170Z,47.07
2018-12-26T03:49:47.360Z,47.10
2018-12-26T03:52:14.539Z,47.26
2018-12-26T03:54:41.742Z,47.29
2018-12-26T03:57:28.376Z,47.44
2018-12-26T03:59:55.590Z,47.44
2018-12-26T04:02:42.215Z,47.21
2018-12-26T04:05:09.367Z,47.21
2018-12-26T04:07:36.590Z,47.30
2018-12-26T04:10:03.895Z,47.36
2018-12-26T04:12:31.116Z,47.53
2018-12-26T04:15:17.722Z,47.49
2018-12-26T04:18:04.363Z,47.48
2018-12-26T04:20:31.558Z,47.75
2018-12-26T04:23:18.186Z,47.47
2018-12-26T04:25:45.427Z,47.47
2018-12-26T04:28:32.091Z,47.38
2018-12-26T04:30:59.312Z,47.38
2018-12-26T04:33:26.505Z,47.33
2018-12-26T04:35:53.730Z,47.28
2018-12-26T04:38:20.925Z,47.27
2018-12-26T04:40:48.162Z,47.25
2018-12-26T04:43:15.393Z,47.11
2018-12-26T04:45:55.018Z,47.25
2018-12-26T04:48:22.257Z,47.25
2018-12-26T04:51:08.902Z,47.01
2018-12-26T04:53:36.092Z,47.01
2018-12-26T04:56:03.443Z,47.07
2018-12-26T04:58:30.647Z,47.03
2018-12-26T05:00:57.846Z,47.00
2018-12-26T05:03:25.055Z,46.92
2018-12-26T05:05:52.227Z,46.90
2018-12-26T05:08:19.458Z,46.89
2018-12-26T05:10:46.964Z,46.89
2018-12-26T05:13:14.200Z,46.87
2018-12-26T05:16:00.847Z,46.66
2018-12-26T05:18:28.084Z,46.66
2018-12-26T05:20:55.253Z,46.78
2018-12-26T05:23:22.505Z,46.94
2018-12-26T05:25:49.738Z,46.73
2018-12-26T05:28:36.393Z,46.55
2018-12-26T05:31:03.648Z,46.55
2018-12-26T05:33:30.876Z,46.77
2018-12-26T05:35:58.095Z,46.79
2018-12-26T05:38:44.732Z,46.87
2018-12-26T05:41:11.983Z,46.87
2018-12-26T05:43:39.174Z,46.69
2018-12-26T05:46:19.208Z,46.68
2018-12-26T05:48:46.453Z,46.68
2018-12-26T05:51:13.674Z,46.65
2018-12-26T05:53:40.917Z,46.64
2018-12-26T05:56:08.144Z,46.65
2018-12-26T05:58:35.386Z,46.59
2018-12-26T06:01:02.573Z,46.58
2018-12-26T06:03:29.799Z,46.57
2018-12-26T06:05:57.013Z,46.62
2018-12-26T06:08:24.187Z,46.60
2018-12-26T06:10:51.468Z,46.54
2018-12-26T06:13:18.713Z,46.55
2018-12-26T06:15:45.958Z,46.50
2018-12-26T06:18:13.140Z,46.47
2018-12-26T06:20:40.357Z,46.74
2018-12-26T06:23:07.708Z,46.60
2018-12-26T06:25:34.962Z,46.64
2018-12-26T06:28:02.232Z,46.55
2018-12-26T06:30:29.439Z,46.53
2018-12-26T06:32:56.659Z,46.54
2018-12-26T06:35:23.890Z,46.66
2018-12-26T06:37:51.182Z,46.59
2018-12-26T06:40:18.435Z,46.52
2018-12-26T06:42:45.625Z,46.50
2018-12-26T06:45:12.896Z,46.53
2018-12-26T06:47:40.125Z,46.56
2018-12-26T06:50:07.355Z,46.56
2018-12-26T06:52:34.609Z,46.65
2018-12-26T06:55:01.821Z,46.58
2018-12-26T06:57:29.035Z,46.55
2018-12-26T06:59:56.254Z,46.52
2018-12-26T07:02:23.485Z,46.53
2018-12-26T07:04:50.693Z,46.55
2018-12-26T07:07:17.937Z,46.53
2018-12-26T07:09:45.156Z,46.54
2018-12-26T07:12:12.490Z,46.51
2018-12-26T07:14:39.717Z,46.51
2018-12-26T07:17:06.983Z,46.49
2018-12-26T07:19:34.198Z,46.49
2018-12-26T07:22:01.412Z,46.50
2018-12-26T07:24:28.633Z,46.51
2018-12-26T07:26:55.847Z,46.48
2018-12-26T07:29:23.121Z,46.48
2018-12-26T07:31:50.331Z,46.52
2018-12-26T07:34:17.560Z,46.46
2018-12-26T07:36:44.788Z,46.50
2018-12-26T07:39:12.037Z,46.52
2018-12-26T07:41:39.281Z,46.52
2018-12-26T07:44:06.498Z,46.51
2018-12-26T07:46:33.760Z,46.49
2018-12-26T07:49:00.968Z,46.48
2018-12-26T07:51:28.289Z,46.41
2018-12-26T07:53:55.494Z,46.40
2018-12-26T07:56:22.800Z,46.42
2018-12-26T07:58:49.987Z,46.38
2018-12-26T08:01:17.153Z,46.38
2018-12-26T08:03:44.365Z,46.38
2018-12-26T08:06:11.533Z,46.39
2018-12-26T08:08:38.774Z,46.43
2018-12-26T08:11:05.960Z,46.39
2018-12-26T08:13:52.680Z,46.38
2018-12-26T08:16:19.911Z,46.38
2018-12-26T08:18:47.136Z,46.42
2018-12-26T08:21:14.385Z,46.43
2018-12-26T08:23:41.636Z,46.37
2018-12-26T08:26:08.854Z,46.45
2018-12-26T08:28:36.248Z,46.47
2018-12-26T08:31:03.499Z,46.46
2018-12-26T08:33:30.732Z,46.35
2018-12-26T08:35:58.002Z,46.31
2018-12-26T08:38:25.231Z,46.33
2018-12-26T08:40:52.469Z,46.34
2018-12-26T08:43:19.707Z,46.42
2018-12-26T08:45:46.994Z,46.34
2018-12-26T08:48:14.253Z,46.34
2018-12-26T08:50:41.498Z,46.36
2018-12-26T08:53:08.704Z,46.34
2018-12-26T08:55:35.955Z,46.31
2018-12-26T08:58:03.190Z,46.31
2018-12-26T09:00:30.423Z,46.29
2018-12-26T09:03:17.056Z,46.24
2018-12-26T09:05:44.265Z,46.24
2018-12-26T09:08:11.546Z,46.27
2018-12-26T09:10:38.759Z,46.34
2018-12-26T09:13:06.020Z,46.26
2018-12-26T09:15:52.645Z,46.12
2018-12-26T09:18:19.892Z,46.12
2018-12-26T09:20:47.089Z,46.23
2018-12-26T09:23:14.298Z,46.21
2018-12-26T09:25:44.097Z,46.15
2018-12-26T09:28:11.369Z,46.17
2018-12-26T09:30:38.574Z,46.16
2018-12-26T09:33:05.885Z,46.14
2018-12-26T09:35:33.135Z,46.12
2018-12-26T09:38:00.351Z,46.07
2018-12-26T09:40:27.567Z,46.10
2018-12-26T09:42:54.728Z,46.05
2018-12-26T09:45:21.972Z,46.09
2018-12-26T09:47:49.213Z,46.04
2018-12-26T09:50:16.437Z,46.10
2018-12-26T09:52:43.686Z,46.14
2018-12-26T09:55:10.884Z,46.20
2018-12-26T09:57:38.143Z,46.25
2018-12-26T10:00:06.544Z,46.26
2018-12-26T10:02:33.809Z,46.22
2018-12-26T10:05:01.029Z,46.21
2018-12-26T10:07:28.260Z,46.26
2018-12-26T10:09:55.449Z,46.24
2018-12-26T10:12:22.650Z,46.16
2018-12-26T10:14:49.906Z,46.11
2018-12-26T10:17:17.120Z,46.13
2018-12-26T10:19:44.377Z,46.17
2018-12-26T10:22:11.564Z,46.24
2018-12-26T10:24:38.797Z,46.21
2018-12-26T10:27:06.038Z,46.12
2018-12-26T10:29:33.301Z,46.10
2018-12-26T10:32:00.550Z,46.15
2018-12-26T10:34:27.761Z,46.16
2018-12-26T10:36:55.006Z,46.18
2018-12-26T10:39:22.203Z,46.25
2018-12-26T10:41:49.457Z,46.14
2018-12-26T10:44:16.654Z,46.17
2018-12-26T10:46:43.926Z,46.17
2018-12-26T10:49:11.101Z,46.25
2018-12-26T10:51:38.330Z,46.21
2018-12-26T10:54:05.550Z,46.15
2018-12-26T10:56:32.778Z,46.21
2018-12-26T10:59:00.225Z,46.18
2018-12-26T11:01:27.437Z,46.16
2018-12-26T11:03:54.704Z,46.36
2018-12-26T11:06:21.932Z,46.36
2018-12-26T11:09:08.695Z,46.26
2018-12-26T11:11:35.911Z,46.26
2018-12-26T11:14:03.090Z,46.23
2018-12-26T11:16:30.441Z,46.30
2018-12-26T11:18:57.647Z,46.24
2018-12-26T11:21:24.893Z,46.16
2018-12-26T11:23:52.178Z,46.16
2018-12-26T11:26:19.413Z,46.13
2018-12-26T11:28:46.750Z,46.21
2018-12-26T11:31:13.991Z,46.16
2018-12-26T11:33:41.240Z,46.17
2018-12-26T11:36:08.494Z,46.23
2018-12-26T11:38:35.689Z,46.23
2018-12-26T11:41:02.904Z,46.16
2018-12-26T11:43:30.134Z,46.17
2018-12-26T11:45:57.376Z,46.25
2018-12-26T11:48:24.594Z,46.33
2018-12-26T11:50:51.789Z,46.20
2018-12-26T11:53:19.018Z,46.17
2018-12-26T11:55:46.193Z,46.17
2018-12-26T11:58:13.432Z,46.21
2018-12-26T12:00:40.656Z,46.23
2018-12-26T12:03:07.964Z,46.26
2018-12-26T12:05:35.222Z,46.22
2018-12-26T12:08:02.459Z,46.27
2018-12-26T12:10:29.745Z,46.14
2018-12-26T12:12:58.721Z,46.15
2018-12-26T12:15:26.048Z,46.20
2018-12-26T12:21:01.334Z,46.17
2018-12-26T12:23:28.663Z,46.19
2018-12-26T12:25:55.852Z,46.13
2018-12-26T12:28:23.087Z,46.13
2018-12-26T12:30:50.300Z,46.10
2018-12-26T12:33:17.512Z,46.13
2018-12-26T12:35:44.714Z,46.10
2018-12-26T12:38:11.943Z,46.03
2018-12-26T12:40:39.135Z,46.06
2018-12-26T12:43:06.546Z,46.08
2018-12-26T12:45:33.754Z,46.15
2018-12-26T12:48:00.942Z,46.14
2018-12-26T12:50:28.199Z,46.12
2018-12-26T12:52:55.395Z,46.13
2018-12-26T12:55:22.669Z,46.16
2018-12-26T12:57:49.895Z,46.15
2018-12-26T13:00:17.120Z,46.17
2018-12-26T13:02:44.452Z,46.18
2018-12-26T13:05:11.709Z,46.23
2018-12-26T13:07:38.994Z,46.16
2018-12-26T13:10:06.302Z,46.24
2018-12-26T13:12:33.556Z,46.26
2018-12-26T13:15:00.793Z,46.36
2018-12-26T13:17:28.019Z,46.30
2018-12-26T13:19:55.236Z,46.33
2018-12-26T13:22:22.472Z,46.35
2018-12-26T13:24:49.757Z,46.26
2018-12-26T13:27:16.991Z,46.29
2018-12-26T13:29:44.276Z,46.28
2018-12-26T13:32:11.501Z,46.38
2018-12-26T13:34:59.987Z,46.35
2018-12-26T13:37:27.248Z,46.36
2018-12-26T13:39:54.479Z,46.41
2018-12-26T13:42:21.676Z,46.43
2018-12-26T13:44:48.961Z,46.43
2018-12-26T13:47:16.166Z,46.43
2018-12-26T13:49:43.425Z,46.56
2018-12-26T13:52:10.671Z,46.55
2018-12-26T13:54:37.902Z,46.49
2018-12-26T13:57:05.164Z,46.50
2018-12-26T13:59:32.392Z,46.51
2018-12-26T14:01:59.617Z,46.45
2018-12-26T14:04:27.010Z,46.46
2018-12-26T14:06:54.245Z,46.50
2018-12-26T14:09:21.444Z,46.51
2018-12-26T14:11:48.704Z,46.53
2018-12-26T14:14:15.981Z,46.53
2018-12-26T14:16:43.210Z,46.55
2018-12-26T14:19:10.439Z,46.58
2018-12-26T14:21:37.698Z,46.56
2018-12-26T14:24:04.917Z,46.58
2018-12-26T14:26:32.164Z,46.54
2018-12-26T14:28:59.367Z,46.55
2018-12-26T14:31:26.568Z,46.57
2018-12-26T14:33:53.839Z,46.54
2018-12-26T14:36:21.058Z,46.51
2018-12-26T14:38:48.260Z,46.64
2018-12-26T14:41:15.537Z,46.54
2018-12-26T14:43:42.797Z,46.52
2018-12-26T14:46:10.087Z,46.55
2018-12-26T14:48:37.277Z,46.64
2018-12-26T14:51:26.461Z,46.96
2018-12-26T14:53:53.103Z,46.96
2018-12-26T14:56:20.273Z,46.60
2018-12-26T14:58:47.642Z,46.61
2018-12-26T15:01:14.853Z,46.59
2018-12-26T15:03:42.381Z,46.60
2018-12-26T15:06:09.728Z,46.59
2018-12-26T15:08:36.909Z,46.54
2018-12-26T15:11:04.675Z,46.55
2018-12-26T15:13:33.202Z,46.56
2018-12-26T15:16:00.464Z,46.55
2018-12-26T15:18:27.628Z,46.60
2018-12-26T15:20:54.905Z,46.61
2018-12-26T15:23:22.114Z,46.59
2018-12-26T15:25:49.324Z,46.60
2018-12-26T15:28:16.549Z,46.65
2018-12-26T15:30:43.805Z,46.63
2018-12-26T15:33:11.147Z,46.61
2018-12-26T15:35:38.430Z,46.63
2018-12-26T15:38:05.643Z,46.66
2018-12-26T15:40:32.905Z,46.64
2018-12-26T15:43:00.190Z,46.65
2018-12-26T15:45:27.565Z,46.67
2018-12-26T15:47:54.866Z,46.66
2018-12-26T15:50:22.118Z,46.69
2018-12-26T15:52:49.385Z,46.75
2018-12-26T15:55:16.592Z,46.84
2018-12-26T15:57:43.925Z,46.82
2018-12-26T16:00:11.110Z,46.74
2018-12-26T16:02:38.324Z,46.78
2018-12-26T16:05:06.598Z,46.84
2018-12-26T16:07:34.008Z,46.78
2018-12-26T16:10:01.229Z,46.79
2018-12-26T16:12:28.466Z,46.75
2018-12-26T16:14:55.758Z,46.80
2018-12-26T16:17:23.153Z,46.76
2018-12-26T16:19:50.353Z,46.80
2018-12-26T16:22:17.614Z,46.79
2018-12-26T16:24:44.824Z,46.81
2018-12-26T16:27:12.052Z,46.84
2018-12-26T16:29:39.283Z,46.85
2018-12-26T16:32:06.513Z,46.83
2018-12-26T16:34:33.724Z,46.85
2018-12-26T16:37:01.039Z,46.86
2018-12-26T16:39:35.680Z,46.86
2018-12-26T16:41:58.467Z,46.90
2018-12-26T16:44:25.805Z,46.84
2018-12-26T16:46:53.077Z,46.88
2018-12-26T16:49:21.518Z,46.91
2018-12-26T16:51:49.596Z,46.89
2018-12-26T16:54:16.796Z,46.85
2018-12-26T16:56:44.069Z,46.84
2018-12-26T16:59:11.347Z,46.85
2018-12-26T17:01:38.590Z,46.67
2018-12-26T17:04:05.994Z,46.67
2018-12-26T17:06:33.206Z,46.93
2018-12-26T17:09:00.479Z,46.83
2018-12-26T17:11:27.882Z,46.87
2018-12-26T17:13:55.181Z,46.97
2018-12-26T17:16:22.415Z,46.94
2018-12-26T17:18:49.681Z,46.99
2018-12-26T17:21:16.941Z,46.97
2018-12-26T17:23:44.179Z,46.96
2018-12-26T17:26:11.503Z,47.04
2018-12-26T17:28:38.784Z,47.03
2018-12-26T17:31:06.032Z,47.06
2018-12-26T17:33:33.388Z,47.00
2018-12-26T17:36:00.654Z,47.02
2018-12-26T17:38:27.863Z,46.99
2018-12-26T17:40:55.100Z,47.05
2018-12-26T17:43:22.283Z,47.13
2018-12-26T17:45:49.537Z,47.07
2018-12-26T17:48:16.753Z,47.07
2018-12-26T17:50:49.072Z,47.01
2018-12-26T17:53:38.169Z,47.08
2018-12-26T17:56:44.323Z,47.09
2018-12-26T17:59:50.322Z,47.13
2018-12-26T18:02:39.300Z,47.03
2018-12-26T18:05:06.725Z,47.04
2018-12-26T18:07:33.908Z,47.09
2018-12-26T18:10:01.134Z,47.09
2018-12-26T18:12:28.388Z,47.10
2018-12-26T18:14:55.580Z,47.10
2018-12-26T18:17:22.829Z,47.14
2018-12-26T18:19:50.046Z,47.18
2018-12-26T18:22:17.366Z,47.13
2018-12-26T18:24:44.597Z,47.12
2018-12-26T18:27:11.839Z,47.24
2018-12-26T18:29:39.181Z,47.24
2018-12-26T18:32:06.359Z,47.22
2018-12-26T18:34:33.556Z,47.18
2018-12-26T18:37:00.805Z,47.20
2018-12-26T18:39:28.118Z,47.16
2018-12-26T18:41:55.339Z,47.23
2018-12-26T18:44:22.556Z,47.17
2018-12-26T18:46:49.903Z,47.10
2018-12-26T18:49:17.121Z,47.09
2018-12-26T18:51:44.317Z,47.10
2018-12-26T18:54:11.561Z,47.16
2018-12-26T18:56:38.754Z,47.20
2018-12-26T18:59:06.029Z,47.18
2018-12-26T19:01:33.297Z,47.15
2018-12-26T19:04:00.477Z,47.14
2018-12-26T19:06:27.737Z,47.17
2018-12-26T19:08:54.898Z,47.18
2018-12-26T19:11:22.170Z,47.17
2018-12-26T19:13:49.384Z,47.14
2018-12-26T19:16:16.684Z,47.21
2018-12-26T19:18:43.913Z,47.23
2018-12-26T19:21:11.093Z,47.23
2018-12-26T19:23:38.362Z,47.17
2018-12-26T19:26:05.573Z,47.15
2018-12-26T19:28:32.847Z,47.18
2018-12-26T19:31:00.156Z,47.21
2018-12-26T19:33:27.361Z,47.21
2018-12-26T19:35:54.663Z,47.22
2018-12-26T19:38:21.925Z,47.25
2018-12-26T19:40:49.165Z,47.21
2018-12-26T19:43:16.439Z,47.23
2018-12-26T19:45:43.745Z,47.30
2018-12-26T19:48:11.000Z,47.25
2018-12-26T19:50:38.178Z,47.25
2018-12-26T19:53:05.445Z,47.25
2018-12-26T19:55:32.702Z,47.22
2018-12-26T19:57:59.937Z,47.20
2018-12-26T20:00:27.247Z,47.22
2018-12-26T20:02:54.437Z,47.22
2018-12-26T20:05:21.673Z,47.25
2018-12-26T20:07:48.869Z,47.23
2018-12-26T20:10:16.170Z,47.25
2018-12-26T20:12:43.407Z,47.21
2018-12-26T20:15:10.652Z,47.18
2018-12-26T20:17:37.931Z,47.27
2018-12-26T20:20:05.573Z,47.28
2018-12-26T20:22:32.823Z,47.35
2018-12-26T20:25:00.039Z,47.35
2018-12-26T20:27:27.428Z,47.35
2018-12-26T20:29:54.674Z,47.41
2018-12-26T20:32:41.324Z,47.50
2018-12-26T20:35:08.687Z,47.50
2018-12-26T20:37:35.878Z,47.56
2018-12-26T20:40:03.397Z,47.60
2018-12-26T20:42:30.631Z,47.57
2018-12-26T20:44:57.866Z,47.59
2018-12-26T20:47:25.119Z,47.70
2018-12-26T20:50:11.745Z,47.92
2018-12-26T20:52:39.008Z,47.92
2018-12-26T20:55:06.256Z,47.74
2018-12-26T20:57:52.931Z,47.73
2018-12-26T21:00:20.171Z,47.73
2018-12-26T21:03:06.778Z,47.72
2018-12-26T21:05:34.208Z,47.72
2018-12-26T21:08:01.469Z,47.85
2018-12-26T21:10:28.696Z,47.99
2018-12-26T21:12:56.014Z,47.96
2018-12-26T21:15:23.244Z,48.00
2018-12-26T21:17:50.478Z,48.00
2018-12-26T21:20:17.721Z,47.99
2018-12-26T21:22:44.950Z,47.88
2018-12-26T21:25:12.230Z,47.93
2018-12-26T21:27:58.877Z,47.86
2018-12-26T21:30:26.219Z,47.86
2018-12-26T21:32:53.447Z,47.96
2018-12-26T21:35:20.795Z,47.85
2018-12-26T21:37:48.157Z,47.85
2018-12-26T21:40:27.577Z,48.19
2018-12-26T21:42:54.906Z,48.19
2018-12-26T21:45:23.837Z,48.06
2018-12-26T21:47:51.276Z,48.05
2018-12-26T21:50:18.531Z,48.02
2018-12-26T21:52:45.810Z,47.99
2018-12-26T21:55:13.021Z,48.02
2018-12-26T21:57:59.685Z,47.80
2018-12-26T22:00:26.915Z,47.80
2018-12-26T22:02:54.205Z,48.08
2018-12-26T22:05:21.400Z,48.08
2018-12-26T22:08:08.021Z,48.05
2018-12-26T22:10:54.688Z,48.03
2018-12-26T22:13:21.970Z,48.03
2018-12-26T22:16:08.736Z,47.94
2018-12-26T22:18:35.970Z,47.94
2018-12-26T22:21:03.146Z,48.13
2018-12-26T22:23:30.387Z,48.10
2018-12-26T22:25:57.654Z,48.11
2018-12-26T22:28:24.924Z,48.10
2018-12-26T22:30:52.116Z,48.06
2018-12-26T22:33:19.353Z,48.06
2018-12-26T22:35:46.556Z,48.07
2018-12-26T22:38:13.733Z,48.10
2018-12-26T22:40:40.966Z,48.14
2018-12-26T22:43:20.344Z,48.11
2018-12-26T22:45:59.778Z,48.02
2018-12-26T22:48:39.676Z,48.01
2018-12-26T22:51:06.985Z,48.01
2018-12-26T22:53:53.617Z,48.15
2018-12-26T22:56:40.245Z,48.35
2018-12-26T22:59:26.848Z,48.56
2018-12-26T23:02:13.514Z,48.09
2018-12-26T23:04:40.710Z,48.09
2018-12-26T23:07:27.390Z,48.11
2018-12-26T23:09:54.623Z,48.11
2018-12-26T23:12:21.821Z,48.05
2018-12-26T23:14:49.052Z,48.06
2018-12-26T23:17:16.264Z,48.08
2018-12-26T23:19:43.495Z,48.06
2018-12-26T23:22:30.261Z,48.04
2018-12-26T23:25:16.894Z,47.66
2018-12-26T23:27:44.240Z,47.66
2018-12-26T23:30:30.870Z,48.13
2018-12-26T23:32:58.100Z,48.13
2018-12-26T23:35:25.367Z,48.05
2018-12-26T23:37:52.613Z,48.06
2018-12-26T23:40:19.889Z,48.08
2018-12-26T23:42:47.120Z,48.09
2018-12-26T23:45:14.386Z,48.09
2018-12-26T23:47:41.569Z,48.04
2018-12-26T23:50:08.770Z,48.03
2018-12-26T23:52:36.003Z,48.06
2018-12-26T23:55:03.608Z,48.03
2018-12-26T23:57:30.788Z,48.11
2018-12-26T23:59:58.025Z,48.04
